Time;durP1;ratioP1;P1;durP2;ratioP2;P2;SDS_P1;SDS_P2;PMS_P1;PMS_P2;Temp;Humidity;BMP_temperature;BMP_pressure;BME280_temperature;BME280_humidity;BME280_pressure;Samples;Min_cycle;Max_cycle;Signal;HPM_P1;HPM_P2
2023/04/17 00:02:02;;;;;;;46.03;26.52;;;;;;;;;;5045576;28;20255;-68
2023/04/17 00:04:29;;;;;;;45.75;27.80;;;;;;;;;;5042633;28;20219;-69
2023/04/17 00:06:55;;;;;;;47.20;27.98;;;;;;;;;;5038036;28;20240;-68
2023/04/17 00:09:20;;;;;;;48.17;27.35;;;;;;;;;;5042798;28;20182;-69
2023/04/17 00:11:45;;;;;;;44.42;25.92;;;;;;;;;;5040389;28;20560;-69
2023/04/17 00:14:11;;;;;;;46.08;26.73;;;;;;;;;;5042762;28;20304;-69
2023/04/17 00:16:36;;;;;;;48.70;28.38;;;;;;;;;;5035501;28;20217;-69
2023/04/17 00:19:01;;;;;;;48.25;27.48;;;;;;;;;;5041635;28;20646;-68
2023/04/17 00:21:28;;;;;;;44.10;27.17;;;;;;;;;;5030274;28;20201;-68
2023/04/17 00:23:54;;;;;;;47.78;28.73;;;;;;;;;;5045315;28;20198;-69
2023/04/17 00:26:19;;;;;;;47.95;27.33;;;;;;;;;;5034314;28;20200;-68
2023/04/17 00:28:46;;;;;;;52.95;28.33;;;;;;;;;;5042117;28;20379;-68
2023/04/17 00:31:12;;;;;;;48.80;28.85;;;;;;;;;;5028234;28;20186;-68
2023/04/17 00:33:37;;;;;;;46.65;26.75;;;;;;;;;;5035090;28;20216;-68
2023/04/17 00:36:03;;;;;;;48.33;27.67;;;;;;;;;;5043645;28;20622;-69
2023/04/17 00:38:28;;;;;;;53.25;27.65;;;;;;;;;;5037240;28;20652;-69
2023/04/17 00:40:53;;;;;;;52.47;27.95;;;;;;;;;;5035216;28;20213;-68
2023/04/17 00:43:19;;;;;;;51.60;28.30;;;;;;;;;;5046686;28;20200;-68
2023/04/17 00:45:46;;;;;;;49.35;29.10;;;;;;;;;;5031639;28;20648;-68
2023/04/17 00:48:14;;;;;;;49.80;28.48;;;;;;;;;;5042197;28;20264;-69
2023/04/17 00:50:40;;;;;;;51.13;29.20;;;;;;;;;;5045382;28;20649;-68
2023/04/17 00:53:06;;;;;;;51.50;29.48;;;;;;;;;;5042051;28;20618;-68
2023/04/17 00:55:33;;;;;;;53.95;30.25;;;;;;;;;;5034769;28;20307;-68
2023/04/17 00:57:59;;;;;;;51.97;30.35;;;;;;;;;;5039245;28;20563;-68
2023/04/17 01:00:25;;;;;;;55.50;30.85;;;;;;;;;;5044466;28;20308;-70
2023/04/17 01:02:51;;;;;;;55.65;31.98;;;;;;;;;;5040554;28;20279;-69
2023/04/17 01:05:16;;;;;;;57.65;31.58;;;;;;;;;;5042566;28;20624;-69
2023/04/17 01:07:42;;;;;;;54.15;30.90;;;;;;;;;;5042379;28;20182;-69
2023/04/17 01:10:08;;;;;;;59.13;31.48;;;;;;;;;;5043890;28;20624;-68
2023/04/17 01:12:34;;;;;;;60.13;32.10;;;;;;;;;;5044478;28;20198;-69
2023/04/17 01:15:00;;;;;;;60.85;33.40;;;;;;;;;;5038754;28;20671;-69
2023/04/17 01:17:25;;;;;;;66.65;33.60;;;;;;;;;;5034766;28;20218;-69
2023/04/17 01:19:51;;;;;;;67.22;34.15;;;;;;;;;;5044037;28;20649;-68
2023/04/17 01:22:19;;;;;;;70.55;34.78;;;;;;;;;;5044848;28;20666;-68
2023/04/17 01:24:45;;;;;;;58.33;32.63;;;;;;;;;;5050547;28;20190;-68
2023/04/17 01:27:14;;;;;;;64.97;34.00;;;;;;;;;;5031417;28;20195;-69
2023/04/17 01:29:41;;;;;;;59.88;33.38;;;;;;;;;;5046308;28;20202;-69
2023/04/17 01:32:06;;;;;;;66.57;33.30;;;;;;;;;;5045366;28;20186;-68
2023/04/17 01:34:32;;;;;;;64.78;34.83;;;;;;;;;;5049481;28;20192;-69
2023/04/17 01:36:57;;;;;;;62.35;33.92;;;;;;;;;;5043290;28;20224;-69
2023/04/17 01:39:23;;;;;;;67.75;34.78;;;;;;;;;;5040793;28;20285;-69
2023/04/17 01:41:48;;;;;;;67.85;35.25;;;;;;;;;;5050610;28;20194;-69
2023/04/17 01:44:13;;;;;;;64.93;34.53;;;;;;;;;;5045397;28;20259;-69
2023/04/17 01:46:39;;;;;;;69.20;35.80;;;;;;;;;;5049250;28;20555;-69
2023/04/17 01:49:04;;;;;;;70.50;36.13;;;;;;;;;;5045818;28;20738;-69
2023/04/17 01:51:30;;;;;;;70.95;36.70;;;;;;;;;;5035253;28;20177;-69
2023/04/17 01:53:55;;;;;;;69.80;35.58;;;;;;;;;;5050058;28;20212;-69
2023/04/17 01:56:21;;;;;;;70.70;37.97;;;;;;;;;;5047655;28;20240;-69
2023/04/17 01:58:46;;;;;;;79.03;39.92;;;;;;;;;;5049667;28;20196;-68
2023/04/17 02:01:12;;;;;;;78.10;39.80;;;;;;;;;;5043158;28;20258;-69
2023/04/17 02:03:37;;;;;;;80.68;38.92;;;;;;;;;;5040024;28;20218;-69
2023/04/17 02:06:03;;;;;;;92.43;41.13;;;;;;;;;;5046577;28;20526;-68
2023/04/17 02:08:28;;;;;;;80.20;39.28;;;;;;;;;;5047700;28;20186;-68
2023/04/17 02:10:54;;;;;;;80.13;40.25;;;;;;;;;;5046346;28;20622;-69
2023/04/17 02:13:20;;;;;;;85.72;40.10;;;;;;;;;;5045388;28;20190;-69
2023/04/17 02:15:45;;;;;;;83.40;38.90;;;;;;;;;;5038853;28;20205;-69
2023/04/17 02:18:11;;;;;;;85.35;38.42;;;;;;;;;;5047032;28;20276;-69
2023/04/17 02:20:36;;;;;;;83.85;40.05;;;;;;;;;;5046875;28;20197;-69
2023/04/17 02:23:03;;;;;;;80.93;39.83;;;;;;;;;;5044346;28;20194;-69
2023/04/17 02:25:29;;;;;;;82.20;41.15;;;;;;;;;;5044309;28;20182;-69
2023/04/17 02:27:55;;;;;;;78.35;40.90;;;;;;;;;;5045423;28;20677;-69
2023/04/17 02:30:21;;;;;;;81.45;39.85;;;;;;;;;;5043339;28;20197;-69
2023/04/17 02:32:53;;;;;;;87.03;40.38;;;;;;;;;;5049678;28;20193;-69
2023/04/17 02:35:19;;;;;;;83.25;39.90;;;;;;;;;;5045602;28;20254;-68
2023/04/17 02:37:45;;;;;;;92.38;40.80;;;;;;;;;;5036414;28;20732;-70
2023/04/17 02:40:10;;;;;;;94.95;43.58;;;;;;;;;;5048933;28;20319;-69
2023/04/17 02:42:36;;;;;;;85.32;41.10;;;;;;;;;;5057761;28;20268;-69
2023/04/17 02:45:03;;;;;;;92.90;43.33;;;;;;;;;;5051842;28;20637;-69
2023/04/17 02:47:28;;;;;;;90.75;41.22;;;;;;;;;;5040724;28;20220;-68
2023/04/17 02:49:55;;;;;;;84.82;40.47;;;;;;;;;;5038356;28;20181;-70
2023/04/17 02:52:21;;;;;;;95.03;41.38;;;;;;;;;;5039106;28;20209;-70
2023/04/17 02:54:46;;;;;;;86.45;40.55;;;;;;;;;;5048443;28;20185;-68
2023/04/17 02:57:11;;;;;;;93.88;42.10;;;;;;;;;;5049013;28;20233;-69
2023/04/17 02:59:37;;;;;;;93.20;42.45;;;;;;;;;;5048036;28;20577;-69
2023/04/17 03:02:03;;;;;;;91.90;41.72;;;;;;;;;;5048624;28;20205;-68
2023/04/17 03:04:28;;;;;;;89.63;41.22;;;;;;;;;;5034576;28;20185;-68
2023/04/17 03:06:54;;;;;;;86.18;42.17;;;;;;;;;;5042967;28;20194;-68
2023/04/17 03:09:21;;;;;;;94.43;43.28;;;;;;;;;;5043215;28;20274;-68
2023/04/17 03:11:49;;;;;;;92.55;42.58;;;;;;;;;;5049470;28;20208;-68
2023/04/17 03:14:15;;;;;;;89.80;41.90;;;;;;;;;;5035563;28;20186;-68
2023/04/17 03:16:40;;;;;;;90.80;42.28;;;;;;;;;;5047582;28;20620;-69
2023/04/17 03:19:06;;;;;;;86.13;41.33;;;;;;;;;;5037080;28;20203;-68
2023/04/17 03:21:31;;;;;;;88.22;42.03;;;;;;;;;;5039023;28;20235;-68
2023/04/17 03:23:56;;;;;;;92.05;42.67;;;;;;;;;;5047201;28;20181;-67
2023/04/17 03:26:22;;;;;;;90.95;43.45;;;;;;;;;;5042921;28;20550;-67
2023/04/17 03:28:47;;;;;;;93.13;42.05;;;;;;;;;;5047299;28;20194;-67
2023/04/17 03:31:13;;;;;;;92.75;42.33;;;;;;;;;;5047526;28;20193;-67
2023/04/17 03:33:38;;;;;;;85.05;41.28;;;;;;;;;;5042891;28;20232;-67
2023/04/17 03:36:04;;;;;;;99.50;43.35;;;;;;;;;;5030265;28;20226;-67
2023/04/17 03:38:30;;;;;;;101.70;44.00;;;;;;;;;;5044205;28;20241;-67
2023/04/17 03:40:55;;;;;;;96.70;44.17;;;;;;;;;;5040983;28;20188;-69
2023/04/17 03:43:21;;;;;;;99.50;43.63;;;;;;;;;;5043785;28;20216;-68
2023/04/17 03:45:46;;;;;;;96.05;44.05;;;;;;;;;;5041982;28;20665;-67
2023/04/17 03:48:11;;;;;;;99.05;44.15;;;;;;;;;;5046456;28;20208;-68
2023/04/17 03:50:37;;;;;;;98.43;45.33;;;;;;;;;;5040755;28;20210;-68
2023/04/17 03:53:02;;;;;;;101.00;46.92;;;;;;;;;;5038534;28;20196;-68
2023/04/17 03:55:28;;;;;;;106.32;47.38;;;;;;;;;;5042813;28;20526;-67
2023/04/17 03:57:53;;;;;;;103.82;46.45;;;;;;;;;;5042043;28;20689;-67
2023/04/17 04:00:20;;;;;;;98.25;45.58;;;;;;;;;;5050080;28;20288;-67
2023/04/17 04:02:45;;;;;;;105.28;45.75;;;;;;;;;;5034916;28;20205;-67
2023/04/17 04:05:10;;;;;;;103.15;46.28;;;;;;;;;;5041992;28;20335;-67
2023/04/17 04:07:36;;;;;;;103.72;46.75;;;;;;;;;;5041851;28;20628;-68
2023/04/17 04:10:01;;;;;;;98.22;45.15;;;;;;;;;;5042456;28;20235;-68
2023/04/17 04:12:26;;;;;;;100.72;45.65;;;;;;;;;;5035516;28;20197;-68
2023/04/17 04:14:52;;;;;;;99.60;46.22;;;;;;;;;;5044273;28;20250;-68
2023/04/17 04:17:17;;;;;;;108.78;45.72;;;;;;;;;;5045605;28;20209;-73
2023/04/17 04:19:43;;;;;;;106.45;47.85;;;;;;;;;;5030781;28;20190;-68
2023/04/17 04:22:09;;;;;;;104.57;47.30;;;;;;;;;;5043783;28;20217;-69
2023/04/17 04:24:35;;;;;;;111.75;48.78;;;;;;;;;;5045062;28;20189;-68
2023/04/17 04:27:03;;;;;;;110.47;46.75;;;;;;;;;;5042723;28;20185;-68
2023/04/17 04:29:28;;;;;;;110.90;46.85;;;;;;;;;;5043500;28;20198;-68
2023/04/17 04:31:54;;;;;;;109.28;47.53;;;;;;;;;;5041784;28;20575;-68
2023/04/17 04:34:20;;;;;;;104.95;47.97;;;;;;;;;;5038354;28;20189;-68
2023/04/17 04:36:48;;;;;;;105.68;48.10;;;;;;;;;;5048800;28;20226;-68
2023/04/17 04:39:19;;;;;;;106.43;47.00;;;;;;;;;;5044207;28;20193;-68
2023/04/17 04:41:45;;;;;;;104.43;48.95;;;;;;;;;;5046815;28;20193;-68
2023/04/17 04:44:10;;;;;;;109.35;46.95;;;;;;;;;;5037416;28;20252;-68
2023/04/17 04:46:35;;;;;;;97.60;46.05;;;;;;;;;;5032985;28;20217;-68
2023/04/17 04:49:01;;;;;;;100.05;45.70;;;;;;;;;;5042057;28;20185;-68
2023/04/17 04:51:26;;;;;;;101.50;46.22;;;;;;;;;;5036405;28;20185;-68
2023/04/17 04:53:51;;;;;;;98.13;46.33;;;;;;;;;;5036549;28;20206;-68
2023/04/17 04:56:17;;;;;;;104.97;45.85;;;;;;;;;;5034722;28;20218;-68
2023/04/17 04:58:42;;;;;;;100.53;46.38;;;;;;;;;;5035778;28;20206;-68
2023/04/17 05:01:08;;;;;;;109.45;47.83;;;;;;;;;;5042073;28;20209;-68
2023/04/17 05:03:33;;;;;;;105.57;46.45;;;;;;;;;;5043856;28;20285;-68
2023/04/17 05:05:58;;;;;;;103.40;46.50;;;;;;;;;;5041063;28;20200;-68
2023/04/17 05:08:24;;;;;;;94.28;46.63;;;;;;;;;;5045762;28;20233;-68
2023/04/17 05:10:49;;;;;;;98.20;46.67;;;;;;;;;;5048341;28;20610;-69
2023/04/17 05:13:15;;;;;;;108.70;48.03;;;;;;;;;;5041256;28;20712;-70
2023/04/17 05:15:40;;;;;;;108.20;50.38;;;;;;;;;;5045981;28;20649;-68
2023/04/17 05:18:06;;;;;;;108.53;49.00;;;;;;;;;;5049380;28;20252;-69
2023/04/17 05:20:31;;;;;;;106.60;49.30;;;;;;;;;;5043921;28;20188;-68
2023/04/17 05:22:57;;;;;;;108.78;49.72;;;;;;;;;;5046917;28;20554;-70
2023/04/17 05:25:23;;;;;;;108.50;49.58;;;;;;;;;;5038218;28;20293;-68
2023/04/17 05:27:48;;;;;;;107.63;48.92;;;;;;;;;;5037329;28;20213;-69
2023/04/17 05:30:14;;;;;;;111.80;49.83;;;;;;;;;;5047932;28;20283;-68
2023/04/17 05:32:39;;;;;;;98.90;46.95;;;;;;;;;;5042569;28;20196;-68
2023/04/17 05:35:05;;;;;;;111.43;49.88;;;;;;;;;;5043296;28;20189;-69
2023/04/17 05:37:30;;;;;;;103.30;48.45;;;;;;;;;;5047051;28;20232;-68
2023/04/17 05:39:58;;;;;;;105.72;46.85;;;;;;;;;;5041879;28;20670;-69
2023/04/17 05:42:24;;;;;;;95.85;47.45;;;;;;;;;;5032200;28;20272;-68
2023/04/17 05:44:49;;;;;;;103.15;47.88;;;;;;;;;;5038176;28;20677;-68
2023/04/17 05:47:14;;;;;;;100.85;47.22;;;;;;;;;;5035840;28;20201;-69
2023/04/17 05:49:41;;;;;;;102.03;47.20;;;;;;;;;;5042737;28;20190;-69
2023/04/17 05:52:06;;;;;;;95.50;46.35;;;;;;;;;;5041187;28;20190;-68
2023/04/17 05:54:32;;;;;;;101.72;47.60;;;;;;;;;;5042091;28;20634;-68
2023/04/17 05:56:57;;;;;;;104.30;47.08;;;;;;;;;;5032355;28;20352;-69
2023/04/17 05:59:23;;;;;;;100.30;46.63;;;;;;;;;;5040176;28;20194;-68
2023/04/17 06:01:48;;;;;;;93.88;46.00;;;;;;;;;;5038048;28;20213;-68
2023/04/17 06:04:13;;;;;;;96.25;46.08;;;;;;;;;;5042331;28;20197;-67
2023/04/17 06:06:39;;;;;;;98.05;48.30;;;;;;;;;;5044714;28;20190;-67
2023/04/17 06:09:06;;;;;;;101.75;46.28;;;;;;;;;;5043454;28;20182;-69
2023/04/17 06:11:32;;;;;;;91.18;46.10;;;;;;;;;;5049627;28;20236;-67
2023/04/17 06:13:57;;;;;;;89.63;46.58;;;;;;;;;;5038126;28;20239;-67
2023/04/17 06:16:23;;;;;;;90.45;46.13;;;;;;;;;;5048259;28;20201;-67
2023/04/17 06:18:48;;;;;;;94.32;47.53;;;;;;;;;;5044541;28;20277;-68
2023/04/17 06:21:13;;;;;;;87.88;44.85;;;;;;;;;;5039823;28;20228;-69
2023/04/17 06:23:39;;;;;;;87.68;45.28;;;;;;;;;;5057417;28;20192;-68
2023/04/17 06:26:04;;;;;;;82.68;44.97;;;;;;;;;;5047144;28;20230;-68
2023/04/17 06:28:31;;;;;;;84.97;43.05;;;;;;;;;;5043309;28;20201;-67
2023/04/17 06:30:56;;;;;;;91.43;44.53;;;;;;;;;;5044854;28;20912;-68
2023/04/17 06:33:21;;;;;;;84.00;42.85;;;;;;;;;;5036981;28;20268;-68
2023/04/17 06:35:47;;;;;;;85.45;42.78;;;;;;;;;;5041932;28;20705;-67
2023/04/17 06:38:12;;;;;;;84.43;43.00;;;;;;;;;;5046755;28;20220;-68
2023/04/17 06:40:37;;;;;;;86.55;43.47;;;;;;;;;;5040787;28;20178;-67
2023/04/17 06:43:03;;;;;;;81.40;44.08;;;;;;;;;;5034483;28;20198;-69
2023/04/17 06:45:28;;;;;;;87.68;44.10;;;;;;;;;;5037676;28;20693;-69
2023/04/17 06:47:54;;;;;;;83.82;42.58;;;;;;;;;;5035011;28;20631;-69
2023/04/17 06:50:19;;;;;;;87.28;45.08;;;;;;;;;;5042503;28;20182;-70
2023/04/17 06:52:45;;;;;;;82.10;41.58;;;;;;;;;;5030115;28;20277;-69
2023/04/17 06:55:10;;;;;;;84.82;42.83;;;;;;;;;;5032395;28;20340;-69
2023/04/17 06:57:35;;;;;;;78.97;41.55;;;;;;;;;;5030621;28;20245;-68
2023/04/17 07:00:02;;;;;;;81.55;43.17;;;;;;;;;;5036562;28;20805;-69
2023/04/17 07:02:27;;;;;;;80.70;42.65;;;;;;;;;;5036495;28;20185;-68
2023/04/17 07:04:56;;;;;;;85.68;43.30;;;;;;;;;;5036434;28;20527;-68
2023/04/17 07:07:21;;;;;;;78.40;41.33;;;;;;;;;;5035305;28;20654;-68
2023/04/17 07:09:47;;;;;;;74.82;38.65;;;;;;;;;;5045726;28;20204;-68
2023/04/17 07:12:13;;;;;;;77.38;42.05;;;;;;;;;;5042412;28;20194;-68
2023/04/17 07:14:39;;;;;;;75.47;39.00;;;;;;;;;;5035008;28;20194;-68
2023/04/17 07:17:05;;;;;;;69.00;38.30;;;;;;;;;;5041609;28;20644;-68
2023/04/17 07:19:32;;;;;;;72.57;40.47;;;;;;;;;;5049828;28;20191;-67
2023/04/17 07:21:57;;;;;;;65.47;37.90;;;;;;;;;;5031927;28;20186;-70
2023/04/17 07:24:22;;;;;;;72.07;39.25;;;;;;;;;;5046222;28;20216;-69
2023/04/17 07:26:48;;;;;;;80.40;39.78;;;;;;;;;;5046831;28;21167;-68
2023/04/17 07:29:14;;;;;;;76.70;39.53;;;;;;;;;;5048019;28;20184;-68
2023/04/17 07:31:39;;;;;;;73.63;38.08;;;;;;;;;;5044464;28;20284;-68
2023/04/17 07:34:04;;;;;;;68.00;36.35;;;;;;;;;;5035965;28;20190;-69
2023/04/17 07:36:30;;;;;;;68.07;37.58;;;;;;;;;;5037302;28;20233;-69
2023/04/17 07:38:55;;;;;;;69.00;38.78;;;;;;;;;;5041453;28;20378;-69
2023/04/17 07:41:21;;;;;;;66.13;36.72;;;;;;;;;;5039004;28;20633;-70
2023/04/17 07:43:46;;;;;;;62.97;36.30;;;;;;;;;;5033777;28;20249;-70
2023/04/17 07:46:11;;;;;;;59.40;34.08;;;;;;;;;;5047315;28;20188;-69
2023/04/17 07:48:38;;;;;;;64.25;36.38;;;;;;;;;;5041946;28;20189;-68
2023/04/17 07:51:03;;;;;;;64.47;34.88;;;;;;;;;;5035204;28;20185;-69
2023/04/17 07:53:29;;;;;;;59.47;35.78;;;;;;;;;;5046015;28;20189;-68
2023/04/17 07:55:54;;;;;;;63.28;35.53;;;;;;;;;;5032666;28;20605;-68
2023/04/17 07:58:21;;;;;;;66.57;37.97;;;;;;;;;;5042117;28;20194;-68
2023/04/17 08:00:46;;;;;;;66.38;37.15;;;;;;;;;;5032323;28;20557;-70
2023/04/17 08:03:13;;;;;;;66.05;34.60;;;;;;;;;;5039293;28;20259;-69
2023/04/17 08:05:39;;;;;;;58.65;34.65;;;;;;;;;;5035850;28;20599;-68
2023/04/17 08:08:04;;;;;;;59.88;35.08;;;;;;;;;;5040780;28;20185;-68
2023/04/17 08:10:30;;;;;;;62.90;35.72;;;;;;;;;;5029428;28;20723;-68
2023/04/17 08:12:55;;;;;;;63.90;35.80;;;;;;;;;;5037040;28;20701;-69
2023/04/17 08:15:21;;;;;;;60.42;35.40;;;;;;;;;;5042344;28;20211;-68
2023/04/17 08:17:47;;;;;;;58.80;33.60;;;;;;;;;;5033634;28;20271;-69
2023/04/17 08:20:12;;;;;;;58.03;35.45;;;;;;;;;;5034452;28;20197;-69
2023/04/17 08:22:42;;;;;;;60.13;34.55;;;;;;;;;;5035722;28;20202;-68
2023/04/17 08:25:08;;;;;;;58.00;33.40;;;;;;;;;;5052603;28;20187;-69
2023/04/17 08:27:41;;;;;;;54.08;32.70;;;;;;;;;;5038188;28;20182;-69
2023/04/17 08:30:09;;;;;;;51.30;32.38;;;;;;;;;;5033119;28;20235;-70
2023/04/17 08:32:43;;;;;;;56.65;33.97;;;;;;;;;;5038340;28;20213;-68
2023/04/17 08:35:12;;;;;;;52.80;31.77;;;;;;;;;;5034265;28;20178;-69
2023/04/17 08:37:39;;;;;;;53.65;32.38;;;;;;;;;;5035627;28;20637;-68
2023/04/17 08:40:08;;;;;;;51.90;32.00;;;;;;;;;;5047269;28;20182;-68
2023/04/17 08:42:35;;;;;;;48.15;30.33;;;;;;;;;;5055979;28;20256;-68
2023/04/17 08:45:06;;;;;;;46.70;30.15;;;;;;;;;;5036754;28;20190;-68
2023/04/17 08:47:33;;;;;;;47.28;29.90;;;;;;;;;;5036403;28;20182;-69
2023/04/17 08:50:06;;;;;;;47.30;28.40;;;;;;;;;;5028939;28;20186;-69
2023/04/17 08:52:31;;;;;;;45.40;28.88;;;;;;;;;;5030528;28;20593;-68
2023/04/17 08:54:56;;;;;;;45.85;29.58;;;;;;;;;;5039679;28;20190;-69
2023/04/17 08:57:22;;;;;;;47.70;29.38;;;;;;;;;;5037600;28;20270;-68
2023/04/17 08:59:47;;;;;;;44.30;28.08;;;;;;;;;;5037480;28;20799;-69
2023/04/17 09:02:12;;;;;;;44.47;26.30;;;;;;;;;;5038699;28;20189;-69
2023/04/17 09:04:42;;;;;;;44.30;27.00;;;;;;;;;;5039108;28;20182;-69
2023/04/17 09:07:10;;;;;;;35.78;23.20;;;;;;;;;;5037725;28;20185;-68
2023/04/17 09:09:54;;;;;;;36.63;22.55;;;;;;;;;;5028269;28;20186;-68
2023/04/17 09:12:21;;;;;;;35.22;21.95;;;;;;;;;;5038966;28;20648;-69
2023/04/17 09:14:47;;;;;;;33.97;21.67;;;;;;;;;;5028808;28;20186;-71
2023/04/17 09:17:17;;;;;;;35.55;22.17;;;;;;;;;;5036276;28;20231;-69
2023/04/17 09:20:06;;;;;;;36.28;22.48;;;;;;;;;;5043915;28;20679;-69
2023/04/17 09:22:32;;;;;;;37.20;22.65;;;;;;;;;;5036894;28;20181;-69
2023/04/17 09:24:58;;;;;;;36.20;23.58;;;;;;;;;;5045604;28;20287;-70
2023/04/17 09:27:27;;;;;;;30.85;20.52;;;;;;;;;;5042464;28;20293;-69
2023/04/17 09:30:02;;;;;;;30.83;20.50;;;;;;;;;;5042807;28;20637;-70
2023/04/17 09:32:28;;;;;;;28.92;20.33;;;;;;;;;;5038661;28;20189;-68
2023/04/17 09:34:57;;;;;;;31.33;20.90;;;;;;;;;;5040985;28;20186;-68
2023/04/17 09:37:22;;;;;;;33.50;21.25;;;;;;;;;;5041373;28;20260;-69
2023/04/17 09:39:59;;;;;;;31.38;20.73;;;;;;;;;;5044581;28;20213;-69
2023/04/17 09:42:28;;;;;;;34.13;21.05;;;;;;;;;;5029477;28;20213;-69
2023/04/17 09:44:53;;;;;;;31.83;21.48;;;;;;;;;;5037696;28;20256;-69
2023/04/17 09:47:21;;;;;;;31.75;21.35;;;;;;;;;;5037754;28;20272;-69
2023/04/17 09:49:53;;;;;;;33.08;22.42;;;;;;;;;;5030685;28;20209;-69
2023/04/17 09:52:22;;;;;;;28.83;20.83;;;;;;;;;;5033544;28;20684;-70
2023/04/17 09:54:52;;;;;;;30.13;20.58;;;;;;;;;;5049632;28;20186;-69
2023/04/17 09:57:18;;;;;;;27.73;18.52;;;;;;;;;;5044832;28;20211;-69
2023/04/17 09:59:47;;;;;;;29.10;20.23;;;;;;;;;;5041716;28;20190;-69
2023/04/17 10:02:14;;;;;;;32.35;21.25;;;;;;;;;;5038766;28;20182;-69
2023/04/17 10:04:41;;;;;;;31.65;20.70;;;;;;;;;;5045290;28;20187;-69
2023/04/17 10:07:06;;;;;;;28.58;19.70;;;;;;;;;;5041492;28;20649;-69
2023/04/17 10:09:32;;;;;;;28.92;20.05;;;;;;;;;;5036113;28;20190;-69
2023/04/17 10:12:00;;;;;;;33.95;20.88;;;;;;;;;;5050953;28;20209;-69
2023/04/17 10:14:29;;;;;;;30.52;20.55;;;;;;;;;;5035821;28;20406;-69
2023/04/17 10:16:55;;;;;;;28.95;18.83;;;;;;;;;;5049969;28;20197;-67
2023/04/17 10:19:31;;;;;;;26.17;18.58;;;;;;;;;;5037221;28;20489;-68
2023/04/17 10:22:16;;;;;;;25.35;17.38;;;;;;;;;;5037252;28;20592;-69
2023/04/17 10:24:42;;;;;;;26.98;17.75;;;;;;;;;;5035680;28;20572;-68
2023/04/17 10:27:26;;;;;;;25.25;19.23;;;;;;;;;;5050660;28;20208;-69
2023/04/17 10:29:55;;;;;;;26.27;19.08;;;;;;;;;;5041064;28;20212;-68
2023/04/17 10:32:24;;;;;;;27.30;18.65;;;;;;;;;;5046411;28;20594;-68
2023/04/17 10:34:51;;;;;;;26.98;17.65;;;;;;;;;;5049755;28;20207;-68
2023/04/17 10:37:17;;;;;;;26.95;18.05;;;;;;;;;;5030469;28;20238;-68
2023/04/17 10:40:00;;;;;;;25.83;18.88;;;;;;;;;;5049856;28;20204;-68
2023/04/17 10:42:28;;;;;;;26.30;17.58;;;;;;;;;;5047347;28;20213;-68
2023/04/17 10:44:57;;;;;;;30.80;20.45;;;;;;;;;;5049815;28;20197;-68
2023/04/17 10:47:30;;;;;;;27.98;18.58;;;;;;;;;;5039956;28;20338;-68
2023/04/17 10:49:57;;;;;;;27.48;17.60;;;;;;;;;;5037073;28;20243;-68
2023/04/17 10:52:38;;;;;;;25.83;17.85;;;;;;;;;;5037080;28;20587;-68
2023/04/17 10:55:04;;;;;;;26.58;17.98;;;;;;;;;;5049586;28;20247;-68
2023/04/17 10:57:52;;;;;;;31.65;18.75;;;;;;;;;;5042379;28;20588;-68
2023/04/17 11:00:19;;;;;;;26.48;17.85;;;;;;;;;;5036463;28;20592;-68
2023/04/17 11:02:45;;;;;;;26.20;16.50;;;;;;;;;;5038226;28;20201;-68
2023/04/17 11:05:11;;;;;;;26.65;18.67;;;;;;;;;;5048555;28;20216;-68
2023/04/17 11:07:37;;;;;;;24.27;17.58;;;;;;;;;;5048188;28;20217;-68
2023/04/17 11:10:06;;;;;;;26.95;15.80;;;;;;;;;;5034697;28;20181;-68
2023/04/17 11:12:31;;;;;;;20.10;15.23;;;;;;;;;;5054925;28;20192;-68
2023/04/17 11:15:03;;;;;;;23.75;15.95;;;;;;;;;;5047559;28;20188;-68
2023/04/17 11:17:29;;;;;;;23.48;15.55;;;;;;;;;;5042371;28;20202;-68
2023/04/17 11:19:55;;;;;;;23.80;16.23;;;;;;;;;;5028192;28;20293;-70
2023/04/17 11:22:21;;;;;;;25.70;15.13;;;;;;;;;;5030551;28;20186;-70
2023/04/17 11:24:50;;;;;;;20.35;15.30;;;;;;;;;;5038350;28;20201;-70
2023/04/17 11:27:15;;;;;;;20.92;14.70;;;;;;;;;;5044606;28;20221;-69
2023/04/17 11:29:41;;;;;;;20.70;14.77;;;;;;;;;;5051129;28;20220;-69
2023/04/17 11:32:10;;;;;;;22.23;16.30;;;;;;;;;;5035711;28;20230;-69
2023/04/17 11:34:35;;;;;;;22.67;15.68;;;;;;;;;;5037418;28;20200;-69
2023/04/17 11:37:02;;;;;;;23.63;15.75;;;;;;;;;;5030398;28;20230;-69
2023/04/17 11:39:29;;;;;;;21.92;15.23;;;;;;;;;;5047063;28;20188;-70
2023/04/17 11:41:57;;;;;;;22.23;15.25;;;;;;;;;;5039509;28;20244;-69
2023/04/17 11:44:24;;;;;;;22.95;17.05;;;;;;;;;;5036565;28;20271;-70
2023/04/17 11:46:50;;;;;;;21.15;15.70;;;;;;;;;;5032094;28;20186;-71
2023/04/17 11:49:22;;;;;;;21.83;15.65;;;;;;;;;;5043567;28;20190;-70
2023/04/17 11:51:47;;;;;;;21.45;15.82;;;;;;;;;;5028256;28;20201;-69
2023/04/17 11:54:26;;;;;;;23.48;15.80;;;;;;;;;;5040184;28;20202;-70
2023/04/17 11:57:05;;;;;;;22.80;14.68;;;;;;;;;;5036228;28;20217;-71
2023/04/17 11:59:37;;;;;;;21.25;15.25;;;;;;;;;;5039336;28;20212;-70
2023/04/17 12:02:05;;;;;;;26.23;16.23;;;;;;;;;;5034228;28;20213;-69
2023/04/17 12:04:33;;;;;;;23.65;16.80;;;;;;;;;;5040770;28;20644;-69
2023/04/17 12:07:03;;;;;;;21.20;15.52;;;;;;;;;;5039689;28;20178;-69
2023/04/17 12:09:30;;;;;;;22.23;15.00;;;;;;;;;;5049548;28;20654;-69
2023/04/17 12:11:57;;;;;;;24.65;15.07;;;;;;;;;;5044974;28;20265;-69
2023/04/17 12:14:23;;;;;;;20.73;16.02;;;;;;;;;;5036796;28;20194;-69
2023/04/17 12:16:50;;;;;;;20.42;14.05;;;;;;;;;;5028197;28;20742;-69
2023/04/17 12:19:16;;;;;;;18.70;14.05;;;;;;;;;;5036961;28;20286;-70
2023/04/17 12:21:42;;;;;;;17.80;13.60;;;;;;;;;;5034313;28;20356;-69
2023/04/17 12:24:08;;;;;;;21.15;15.00;;;;;;;;;;5035534;28;20193;-70
2023/04/17 12:26:33;;;;;;;21.33;15.18;;;;;;;;;;5046247;28;20189;-69
2023/04/17 12:28:59;;;;;;;21.92;15.10;;;;;;;;;;5047228;28;20609;-69
2023/04/17 12:31:25;;;;;;;18.48;14.25;;;;;;;;;;5041264;28;20324;-69
2023/04/17 12:33:51;;;;;;;17.45;12.77;;;;;;;;;;5043100;28;20193;-70
2023/04/17 12:36:17;;;;;;;18.05;13.63;;;;;;;;;;5047545;28;20225;-69
2023/04/17 12:38:42;;;;;;;18.33;13.23;;;;;;;;;;5039399;28;20197;-70
2023/04/17 12:41:08;;;;;;;18.88;12.75;;;;;;;;;;5027964;28;20182;-69
2023/04/17 12:43:33;;;;;;;16.27;12.05;;;;;;;;;;5037693;28;20623;-70
2023/04/17 12:46:00;;;;;;;16.27;11.93;;;;;;;;;;5043284;28;20645;-69
2023/04/17 12:48:26;;;;;;;18.75;12.90;;;;;;;;;;5042341;28;20191;-69
2023/04/17 12:50:51;;;;;;;14.63;11.70;;;;;;;;;;5039144;28;20625;-71
2023/04/17 12:53:17;;;;;;;14.65;12.40;;;;;;;;;;5043645;28;20193;-69
2023/04/17 12:55:42;;;;;;;18.58;12.95;;;;;;;;;;5043207;28;20286;-69
2023/04/17 12:58:11;;;;;;;16.70;13.40;;;;;;;;;;5043413;28;20219;-70
2023/04/17 13:00:38;;;;;;;20.88;13.02;;;;;;;;;;5040338;28;20594;-69
2023/04/17 13:03:04;;;;;;;17.17;12.30;;;;;;;;;;5041783;28;20193;-69
2023/04/17 13:05:30;;;;;;;18.48;13.23;;;;;;;;;;5043636;28;20200;-69
2023/04/17 13:07:56;;;;;;;16.98;11.52;;;;;;;;;;5043451;28;20212;-69
2023/04/17 13:10:22;;;;;;;15.60;11.27;;;;;;;;;;5042545;28;20671;-69
2023/04/17 13:12:48;;;;;;;18.50;12.75;;;;;;;;;;5042620;28;20186;-70
2023/04/17 13:15:13;;;;;;;16.85;12.43;;;;;;;;;;5044348;28;20201;-69
2023/04/17 13:17:39;;;;;;;21.27;13.27;;;;;;;;;;5043045;28;20257;-70
2023/04/17 13:20:05;;;;;;;16.33;11.93;;;;;;;;;;5044899;28;20228;-69
2023/04/17 13:22:31;;;;;;;18.13;13.18;;;;;;;;;;5047857;28;20273;-69
2023/04/17 13:24:57;;;;;;;15.45;11.75;;;;;;;;;;5046108;28;20193;-69
2023/04/17 13:27:24;;;;;;;16.38;11.32;;;;;;;;;;5046318;28;20640;-69
2023/04/17 13:29:49;;;;;;;12.65;10.85;;;;;;;;;;5046942;28;20229;-70
2023/04/17 13:32:15;;;;;;;17.52;11.10;;;;;;;;;;5041749;28;20610;-70
2023/04/17 13:34:40;;;;;;;15.40;10.70;;;;;;;;;;5045984;28;20707;-70
2023/04/17 13:37:06;;;;;;;14.13;11.07;;;;;;;;;;5042544;28;20374;-70
2023/04/17 13:39:31;;;;;;;16.13;9.85;;;;;;;;;;5043601;28;20203;-69
2023/04/17 13:41:57;;;;;;;17.00;10.23;;;;;;;;;;5043674;28;20190;-70
2023/04/17 13:44:23;;;;;;;13.05;9.45;;;;;;;;;;5036933;28;20234;-70
2023/04/17 13:46:48;;;;;;;15.07;10.82;;;;;;;;;;5032876;28;20202;-70
2023/04/17 13:49:14;;;;;;;13.18;9.88;;;;;;;;;;5039260;28;20185;-69
2023/04/17 13:51:39;;;;;;;13.35;9.70;;;;;;;;;;5045444;28;20285;-71
2023/04/17 13:54:05;;;;;;;16.83;10.48;;;;;;;;;;5039845;28;20200;-70
2023/04/17 13:56:31;;;;;;;14.15;10.10;;;;;;;;;;5042923;28;20347;-69
2023/04/17 13:58:57;;;;;;;14.35;10.70;;;;;;;;;;5044878;28;20197;-70
2023/04/17 14:01:23;;;;;;;15.20;9.85;;;;;;;;;;5046173;28;20239;-69
2023/04/17 14:03:48;;;;;;;12.27;9.18;;;;;;;;;;5043907;28;20617;-69
2023/04/17 14:06:16;;;;;;;13.48;9.73;;;;;;;;;;5044990;28;20278;-70
2023/04/17 14:08:42;;;;;;;15.77;10.68;;;;;;;;;;5045081;28;20177;-70
2023/04/17 14:11:07;;;;;;;15.20;9.73;;;;;;;;;;5042867;28;20614;-69
2023/04/17 14:13:32;;;;;;;13.57;9.82;;;;;;;;;;5043878;28;20608;-70